createdAt,value
2017-10-29T00:00:43.480Z,85.80
2017-10-29T00:02:36.348Z,85.71
2017-10-29T00:03:36.301Z,86.76
2017-10-29T00:05:29.147Z,86.28
2017-10-29T00:06:29.121Z,86.28
2017-10-29T00:08:21.990Z,86.57
2017-10-29T00:09:21.943Z,87.13
2017-10-29T00:11:14.793Z,87.42
2017-10-29T00:12:14.765Z,87.42
2017-10-29T00:14:08.133Z,88.66
2017-10-29T00:15:08.075Z,87.99
2017-10-29T00:17:01.412Z,89.09
2017-10-29T00:18:01.389Z,89.66
2017-10-29T00:19:54.259Z,90.80
2017-10-29T00:20:54.213Z,90.99
2017-10-29T00:22:47.063Z,91.94
2017-10-29T00:23:47.040Z,92.41
2017-10-29T00:25:40.904Z,92.89
2017-10-29T00:26:40.855Z,93.55
2017-10-29T00:28:34.184Z,93.94
2017-10-29T00:29:34.163Z,93.65
2017-10-29T00:31:27.031Z,94.22
2017-10-29T00:32:26.988Z,94.79
2017-10-29T00:34:19.828Z,94.46
2017-10-29T00:35:19.806Z,94.42
2017-10-29T00:37:13.164Z,94.32
2017-10-29T00:38:13.119Z,94.51
2017-10-29T00:40:06.459Z,94.13
2017-10-29T00:41:06.430Z,94.65
2017-10-29T00:42:59.310Z,94.98
2017-10-29T00:43:59.251Z,94.84
2017-10-29T00:45:52.094Z,94.60
2017-10-29T00:46:52.070Z,94.22
2017-10-29T00:48:44.932Z,94.22
2017-10-29T00:49:44.886Z,94.89
2017-10-29T00:51:37.731Z,94.56
2017-10-29T00:52:37.709Z,94.93
2017-10-29T00:54:30.573Z,95.17
2017-10-29T00:55:30.528Z,94.65
2017-10-29T00:57:23.373Z,94.42
2017-10-29T00:58:23.351Z,95.17
2017-10-29T01:00:16.714Z,94.37
2017-10-29T01:01:16.660Z,94.42
2017-10-29T01:03:09.501Z,94.03
2017-10-29T01:04:09.477Z,94.22
2017-10-29T01:06:02.342Z,93.75
2017-10-29T01:07:02.296Z,94.22
2017-10-29T01:08:55.137Z,94.42
2017-10-29T01:09:55.114Z,93.94
2017-10-29T01:11:47.986Z,93.46
2017-10-29T01:12:47.938Z,93.18
2017-10-29T01:14:41.276Z,93.65
2017-10-29T01:15:41.247Z,93.27
2017-10-29T01:17:34.118Z,93.46
2017-10-29T01:18:34.068Z,93.18
2017-10-29T01:20:26.914Z,93.46
2017-10-29T01:21:26.887Z,93.46
2017-10-29T01:23:19.755Z,93.37
2017-10-29T01:24:19.706Z,93.65
2017-10-29T01:26:12.550Z,93.84
2017-10-29T01:27:12.525Z,93.84
2017-10-29T01:29:05.396Z,93.37
2017-10-29T01:30:05.351Z,94.03
2017-10-29T01:31:58.189Z,93.84
2017-10-29T01:32:58.166Z,93.94
2017-10-29T01:34:51.035Z,93.94
2017-10-29T01:35:50.987Z,93.46
2017-10-29T01:37:43.834Z,92.89
2017-10-29T01:38:43.808Z,93.08
2017-10-29T01:40:36.680Z,92.89
2017-10-29T01:41:36.628Z,92.80
2017-10-29T01:43:29.471Z,93.94
2017-10-29T01:44:29.447Z,93.37
2017-10-29T01:46:22.318Z,94.32
2017-10-29T01:47:22.268Z,94.13
2017-10-29T01:49:15.111Z,94.51
2017-10-29T01:50:15.088Z,94.13
2017-10-29T01:52:07.952Z,94.70
2017-10-29T01:53:07.906Z,94.51
2017-10-29T01:55:00.751Z,94.89
2017-10-29T01:56:00.726Z,94.89
2017-10-29T01:57:53.602Z,95.08
2017-10-29T01:58:53.544Z,95.17
2017-10-29T02:00:46.388Z,95.08
2017-10-29T02:01:46.363Z,95.56
2017-10-29T02:03:39.234Z,95.27
2017-10-29T02:04:39.185Z,95.46
2017-10-29T02:06:32.030Z,95.27
2017-10-29T02:07:32.007Z,95.17
2017-10-29T02:09:25.365Z,94.60
2017-10-29T02:10:25.326Z,95.27
2017-10-29T02:12:18.159Z,95.08
2017-10-29T02:13:18.142Z,94.89
2017-10-29T02:15:11.000Z,95.27
2017-10-29T02:16:10.955Z,94.79
2017-10-29T02:18:03.808Z,94.89
2017-10-29T02:19:03.788Z,94.79
2017-10-29T02:20:56.646Z,95.08
2017-10-29T02:21:56.600Z,94.32
2017-10-29T02:23:49.445Z,94.60
2017-10-29T02:24:49.420Z,94.70
2017-10-29T02:26:42.287Z,93.84
2017-10-29T02:27:42.246Z,93.46
2017-10-29T02:29:35.078Z,93.94
2017-10-29T02:30:35.060Z,93.08
2017-10-29T02:32:27.921Z,92.89
2017-10-29T02:33:27.875Z,92.99
2017-10-29T02:35:21.208Z,92.99
2017-10-29T02:36:21.185Z,92.89
2017-10-29T02:38:14.059Z,92.89
2017-10-29T02:39:14.006Z,92.51
2017-10-29T02:41:06.845Z,91.80
2017-10-29T02:42:06.821Z,91.22
2017-10-29T02:43:59.686Z,91.03
2017-10-29T02:44:59.642Z,91.51
2017-10-29T02:46:52.501Z,91.32
2017-10-29T02:47:52.462Z,90.94
2017-10-29T02:49:45.329Z,91.13
2017-10-29T02:50:45.284Z,90.37
2017-10-29T02:52:38.619Z,90.75
2017-10-29T02:53:38.593Z,91.03
2017-10-29T02:55:31.459Z,90.47
2017-10-29T02:56:31.413Z,91.03
2017-10-29T02:58:24.259Z,90.47
2017-10-29T02:59:24.232Z,90.56
2017-10-29T03:01:17.111Z,90.75
2017-10-29T03:02:17.053Z,90.56
2017-10-29T03:04:09.893Z,90.66
2017-10-29T03:05:09.873Z,90.75
2017-10-29T03:07:02.758Z,90.18
2017-10-29T03:08:02.690Z,90.08
2017-10-29T03:09:55.532Z,89.80
2017-10-29T03:10:55.521Z,90.28
2017-10-29T03:12:48.421Z,89.51
2017-10-29T03:13:48.375Z,89.80
2017-10-29T03:15:41.721Z,89.99
2017-10-29T03:16:41.696Z,89.80
2017-10-29T03:18:35.054Z,89.80
2017-10-29T03:19:35.006Z,89.99
2017-10-29T03:21:28.345Z,89.70
2017-10-29T03:22:28.318Z,89.14
2017-10-29T03:24:21.188Z,89.32
2017-10-29T03:25:21.141Z,89.14
2017-10-29T03:27:15.478Z,89.23
2017-10-29T03:28:15.454Z,89.14
2017-10-29T03:30:08.318Z,88.46
2017-10-29T03:31:08.273Z,88.66
2017-10-29T03:33:01.114Z,88.09
2017-10-29T03:34:01.090Z,88.94
2017-10-29T03:35:53.971Z,88.37
2017-10-29T03:36:53.915Z,88.75
2017-10-29T03:38:46.755Z,88.66
2017-10-29T03:39:46.731Z,88.85
2017-10-29T03:41:39.597Z,88.66
2017-10-29T03:42:39.553Z,88.28
2017-10-29T03:44:32.901Z,87.61
2017-10-29T03:45:32.880Z,87.90
2017-10-29T03:47:25.735Z,88.32
2017-10-29T03:48:25.694Z,87.90
2017-10-29T03:50:18.537Z,87.90
2017-10-29T03:51:18.511Z,88.46
2017-10-29T03:53:11.386Z,87.99
2017-10-29T03:54:11.333Z,88.09
2017-10-29T03:56:04.188Z,88.04
2017-10-29T03:57:04.156Z,88.09
2017-10-29T03:58:57.043Z,87.99
2017-10-29T03:59:56.986Z,88.04
2017-10-29T04:01:50.328Z,88.04
2017-10-29T04:02:50.303Z,88.32
2017-10-29T04:04:43.665Z,88.23
2017-10-29T04:05:43.619Z,88.13
2017-10-29T04:07:36.459Z,88.04
2017-10-29T04:08:36.437Z,88.23
2017-10-29T04:10:29.797Z,88.42
2017-10-29T04:11:29.748Z,88.23
2017-10-29T04:13:22.684Z,87.94
2017-10-29T04:14:22.567Z,88.09
2017-10-29T04:16:15.946Z,88.32
2017-10-29T04:17:15.890Z,88.23
2017-10-29T04:19:08.737Z,88.13
2017-10-29T04:20:08.714Z,88.60
2017-10-29T04:22:02.077Z,87.94
2017-10-29T04:23:02.028Z,88.32
2017-10-29T04:24:55.364Z,88.70
2017-10-29T04:25:55.339Z,88.89
2017-10-29T04:27:48.702Z,88.32
2017-10-29T04:28:48.653Z,88.32
2017-10-29T04:30:41.992Z,88.79
2017-10-29T04:31:41.968Z,88.89
2017-10-29T04:33:35.325Z,88.79
2017-10-29T04:34:35.281Z,88.60
2017-10-29T04:36:28.131Z,88.84
2017-10-29T04:37:28.105Z,88.93
2017-10-29T04:39:20.985Z,89.03
2017-10-29T04:40:20.931Z,88.46
2017-10-29T04:42:14.277Z,88.84
2017-10-29T04:43:14.254Z,89.32
2017-10-29T04:45:07.120Z,88.56
2017-10-29T04:46:07.074Z,88.37
2017-10-29T04:47:59.923Z,88.56
2017-10-29T04:48:59.899Z,88.93
2017-10-29T04:50:53.268Z,88.93
2017-10-29T04:51:53.223Z,88.79
2017-10-29T04:53:46.091Z,87.93
2017-10-29T04:54:46.047Z,88.79
2017-10-29T04:56:38.914Z,88.37
2017-10-29T04:57:38.869Z,88.18
2017-10-29T04:59:32.208Z,88.93
2017-10-29T05:00:32.184Z,89.36
2017-10-29T05:02:25.050Z,89.17
2017-10-29T05:03:25.004Z,89.07
2017-10-29T05:05:17.857Z,88.98
2017-10-29T05:06:17.834Z,88.98
2017-10-29T05:08:10.710Z,88.89
2017-10-29T05:09:10.653Z,89.17
2017-10-29T05:11:03.498Z,90.12
2017-10-29T05:12:03.485Z,89.94
2017-10-29T05:13:56.838Z,89.94
2017-10-29T05:14:56.788Z,90.03
2017-10-29T05:16:49.633Z,90.31
2017-10-29T05:17:49.612Z,90.89
2017-10-29T05:19:42.482Z,90.50
2017-10-29T05:20:42.436Z,90.50
2017-10-29T05:22:35.280Z,90.31
2017-10-29T05:23:35.259Z,90.31
2017-10-29T05:25:28.127Z,90.50
2017-10-29T05:26:28.084Z,90.41
2017-10-29T05:28:21.420Z,89.94
2017-10-29T05:29:21.396Z,90.03
2017-10-29T05:31:14.757Z,90.12
2017-10-29T05:32:14.718Z,89.75
2017-10-29T05:34:08.061Z,89.17
2017-10-29T05:35:08.038Z,89.36
2017-10-29T05:37:00.906Z,89.36
2017-10-29T05:38:00.861Z,89.17
2017-10-29T05:39:53.705Z,88.70
2017-10-29T05:40:53.682Z,89.26
2017-10-29T05:42:46.563Z,88.70
2017-10-29T05:43:46.505Z,89.26
2017-10-29T05:45:39.351Z,89.07
2017-10-29T05:46:39.327Z,88.70
2017-10-29T05:48:32.197Z,89.46
2017-10-29T05:49:32.152Z,89.07
2017-10-29T05:51:25.488Z,89.65
2017-10-29T05:52:25.466Z,89.84
2017-10-29T05:54:18.338Z,92.98
2017-10-29T05:55:18.290Z,93.08
2017-10-29T05:57:11.137Z,93.27
2017-10-29T05:58:11.113Z,93.55
2017-10-29T06:00:03.982Z,92.89
2017-10-29T06:01:03.936Z,92.60
2017-10-29T06:02:56.780Z,91.36
2017-10-29T06:03:56.757Z,91.94
2017-10-29T06:05:50.119Z,91.46
2017-10-29T06:06:50.072Z,91.27
2017-10-29T06:08:42.919Z,91.36
2017-10-29T06:09:42.899Z,91.74
2017-10-29T06:11:35.772Z,91.36
2017-10-29T06:12:35.720Z,92.13
2017-10-29T06:14:28.563Z,91.27
2017-10-29T06:15:28.540Z,91.65
2017-10-29T06:17:21.413Z,90.98
2017-10-29T06:18:21.367Z,91.46
2017-10-29T06:20:14.212Z,90.98
2017-10-29T06:21:14.190Z,91.17
2017-10-29T06:23:07.560Z,90.70
2017-10-29T06:24:07.516Z,91.27
2017-10-29T06:26:00.362Z,90.70
2017-10-29T06:27:00.338Z,90.60
2017-10-29T06:28:53.208Z,90.60
2017-10-29T06:29:53.159Z,91.46
2017-10-29T06:31:46.510Z,90.41
2017-10-29T06:32:46.484Z,90.50
2017-10-29T06:34:39.354Z,91.46
2017-10-29T06:35:39.343Z,91.17
2017-10-29T06:37:32.155Z,91.84
2017-10-29T06:38:32.130Z,91.74
2017-10-29T06:40:25.526Z,92.13
2017-10-29T06:41:25.470Z,92.13
2017-10-29T06:43:18.317Z,92.13
2017-10-29T06:44:18.290Z,92.22
2017-10-29T06:46:11.165Z,92.50
2017-10-29T06:47:11.117Z,93.46
2017-10-29T06:49:03.962Z,93.17
2017-10-29T06:50:03.938Z,94.03
2017-10-29T06:51:56.814Z,93.93
2017-10-29T06:52:56.767Z,94.41
2017-10-29T06:54:50.109Z,94.60
2017-10-29T06:55:50.077Z,94.89
2017-10-29T06:57:42.955Z,94.89
2017-10-29T06:58:42.909Z,94.70
2017-10-29T07:00:35.754Z,94.41
2017-10-29T07:01:35.735Z,94.60
2017-10-29T07:03:28.619Z,94.22
2017-10-29T07:04:28.557Z,94.70
2017-10-29T07:06:21.898Z,94.89
2017-10-29T07:07:21.866Z,94.89
2017-10-29T07:09:14.745Z,94.79
2017-10-29T07:10:14.696Z,94.51
2017-10-29T07:12:08.032Z,94.13
2017-10-29T07:13:08.008Z,94.22
2017-10-29T07:15:00.872Z,94.51
2017-10-29T07:16:00.829Z,94.70
2017-10-29T07:17:53.677Z,93.84
2017-10-29T07:18:53.654Z,94.22
2017-10-29T07:20:46.532Z,94.51
2017-10-29T07:21:46.485Z,94.41
2017-10-29T07:23:39.819Z,93.93
2017-10-29T07:24:39.797Z,94.70
2017-10-29T07:26:32.665Z,94.70
2017-10-29T07:27:32.618Z,94.60
2017-10-29T07:29:25.488Z,94.70
2017-10-29T07:30:25.460Z,94.79
2017-10-29T07:32:18.328Z,95.17
2017-10-29T07:33:18.287Z,94.70
2017-10-29T07:35:11.633Z,94.79
2017-10-29T07:36:11.614Z,94.79
2017-10-29T07:38:04.483Z,94.60
2017-10-29T07:39:04.487Z,94.70
2017-10-29T07:40:57.289Z,94.41
2017-10-29T07:41:57.263Z,94.60
2017-10-29T07:43:50.129Z,94.70
2017-10-29T07:44:50.084Z,94.79
2017-10-29T07:46:42.938Z,94.89
2017-10-29T07:47:42.909Z,95.17
2017-10-29T07:49:36.300Z,94.89
2017-10-29T07:50:36.257Z,94.60
2017-10-29T07:52:29.596Z,94.89
2017-10-29T07:53:29.572Z,94.51
2017-10-29T07:55:22.552Z,94.22
2017-10-29T07:56:22.499Z,94.13
2017-10-29T07:58:15.839Z,93.93
2017-10-29T07:59:15.815Z,93.84
2017-10-29T08:01:09.296Z,94.03
2017-10-29T08:02:09.145Z,94.60
2017-10-29T08:04:01.995Z,95.08
2017-10-29T08:05:01.973Z,94.22
2017-10-29T08:06:54.842Z,94.70
2017-10-29T08:07:54.797Z,94.79
2017-10-29T08:09:47.644Z,94.98
2017-10-29T08:10:47.621Z,94.89
2017-10-29T08:12:40.493Z,94.98
2017-10-29T08:13:40.441Z,94.89
2017-10-29T08:15:33.292Z,94.79
2017-10-29T08:16:33.275Z,94.89
2017-10-29T08:18:26.133Z,95.46
2017-10-29T08:19:26.091Z,95.65
2017-10-29T08:21:19.431Z,95.65
2017-10-29T08:22:19.408Z,95.94
2017-10-29T08:24:12.280Z,96.60
2017-10-29T08:25:12.239Z,96.51
2017-10-29T08:27:05.079Z,96.70
2017-10-29T08:28:05.058Z,96.89
2017-10-29T08:29:57.927Z,96.80
2017-10-29T08:30:57.880Z,96.98
2017-10-29T08:32:50.727Z,95.03
2017-10-29T08:33:50.707Z,95.12
2017-10-29T08:35:43.580Z,95.89
2017-10-29T08:36:43.527Z,96.22
2017-10-29T08:38:36.871Z,97.36
2017-10-29T08:39:36.853Z,97.36
2017-10-29T08:41:29.718Z,97.65
2017-10-29T08:42:29.672Z,97.75
2017-10-29T08:44:23.021Z,98.41
2017-10-29T08:45:23.000Z,97.84
2017-10-29T08:47:15.872Z,97.84
2017-10-29T08:48:15.833Z,98.13
2017-10-29T08:50:10.212Z,98.22
2017-10-29T08:51:10.156Z,98.51
2017-10-29T08:53:03.625Z,98.51
2017-10-29T08:54:03.480Z,98.32
2017-10-29T08:55:56.831Z,98.41
2017-10-29T08:56:56.837Z,98.22
2017-10-29T08:58:50.189Z,99.18
2017-10-29T08:59:50.142Z,98.51
2017-10-29T09:01:42.990Z,99.55
2017-10-29T09:02:42.972Z,99.18
2017-10-29T09:04:36.332Z,99.65
2017-10-29T09:05:36.286Z,99.46
2017-10-29T09:07:29.628Z,99.37
2017-10-29T09:08:29.601Z,99.75
2017-10-29T09:10:22.964Z,99.99
2017-10-29T09:11:22.920Z,99.99
2017-10-29T09:13:16.284Z,99.99
2017-10-29T09:14:16.259Z,99.99
2017-10-29T09:16:09.129Z,99.55
2017-10-29T09:17:09.081Z,99.55
2017-10-29T09:19:02.433Z,99.94
2017-10-29T09:20:02.411Z,99.94
2017-10-29T09:21:55.807Z,99.99
2017-10-29T09:22:55.752Z,99.84
2017-10-29T09:24:49.090Z,99.99
2017-10-29T09:25:49.065Z,99.99
2017-10-29T09:27:42.434Z,99.99
2017-10-29T09:28:42.383Z,99.99
2017-10-29T09:30:35.231Z,99.99
2017-10-29T09:31:35.208Z,99.89
2017-10-29T09:33:28.573Z,99.99
2017-10-29T09:34:28.527Z,99.99
2017-10-29T09:36:21.377Z,99.99
2017-10-29T09:37:21.352Z,99.99
2017-10-29T09:39:14.220Z,99.51
2017-10-29T09:40:14.178Z,99.51
2017-10-29T09:42:07.024Z,99.22
2017-10-29T09:43:07.003Z,99.22
2017-10-29T09:44:59.873Z,99.41
2017-10-29T09:45:59.830Z,99.99
2017-10-29T09:47:53.184Z,99.99
2017-10-29T09:48:53.146Z,99.99
2017-10-29T09:50:46.022Z,99.99
2017-10-29T09:51:45.987Z,99.99
2017-10-29T09:53:39.322Z,99.99
2017-10-29T09:54:39.302Z,99.99
2017-10-29T09:56:32.664Z,99.70
2017-10-29T09:57:32.620Z,98.36
2017-10-29T09:59:25.974Z,97.13
2017-10-29T10:00:25.955Z,97.70
2017-10-29T10:02:18.828Z,97.41
2017-10-29T10:03:18.785Z,97.89
2017-10-29T10:05:12.127Z,97.22
2017-10-29T10:06:12.105Z,96.56
2017-10-29T10:08:05.470Z,97.13
2017-10-29T10:09:05.424Z,96.75
2017-10-29T10:10:58.279Z,94.56
2017-10-29T10:11:58.257Z,94.93
2017-10-29T10:13:51.623Z,94.93
2017-10-29T10:14:51.572Z,95.41
2017-10-29T10:16:44.420Z,94.56
2017-10-29T10:17:44.402Z,94.08
2017-10-29T10:19:37.276Z,92.84
2017-10-29T10:20:37.229Z,92.74
2017-10-29T10:22:30.081Z,93.12
2017-10-29T10:23:30.069Z,91.98
2017-10-29T10:25:22.933Z,91.31
2017-10-29T10:26:22.887Z,90.55
2017-10-29T10:28:15.766Z,90.26
2017-10-29T10:29:15.745Z,89.98
2017-10-29T10:31:08.623Z,90.74
2017-10-29T10:32:08.574Z,90.45
2017-10-29T10:34:01.422Z,89.69
2017-10-29T10:35:01.403Z,89.03
2017-10-29T10:36:54.278Z,90.26
2017-10-29T10:37:54.241Z,90.36
2017-10-29T10:39:47.090Z,89.31
2017-10-29T10:40:47.069Z,89.12
2017-10-29T10:42:39.949Z,89.50
2017-10-29T10:43:39.904Z,89.22
2017-10-29T10:45:32.750Z,89.40
2017-10-29T10:46:32.733Z,89.40
2017-10-29T10:48:25.614Z,89.40
2017-10-29T10:49:25.568Z,88.36
2017-10-29T10:51:18.419Z,88.55
2017-10-29T10:52:18.399Z,88.12
2017-10-29T10:54:11.275Z,87.74
2017-10-29T10:55:11.230Z,88.31
2017-10-29T10:57:04.584Z,87.26
2017-10-29T10:58:04.562Z,86.88
2017-10-29T10:59:57.470Z,87.64
2017-10-29T11:00:57.406Z,87.45
2017-10-29T11:02:50.254Z,88.12
2017-10-29T11:03:50.234Z,88.31
2017-10-29T11:05:43.602Z,87.16
2017-10-29T11:06:43.555Z,87.35
2017-10-29T11:08:36.912Z,88.12
2017-10-29T11:09:36.889Z,87.26
2017-10-29T11:11:29.759Z,87.35
2017-10-29T11:12:29.719Z,87.74
2017-10-29T11:14:22.650Z,87.16
2017-10-29T11:15:22.553Z,85.93
2017-10-29T11:17:15.423Z,86.59
2017-10-29T11:18:15.379Z,85.93
2017-10-29T11:20:08.229Z,85.64
2017-10-29T11:21:08.208Z,85.64
2017-10-29T11:23:01.082Z,83.54
2017-10-29T11:24:01.037Z,84.40
2017-10-29T11:25:53.893Z,83.16
2017-10-29T11:26:53.871Z,82.06
2017-10-29T11:28:47.245Z,82.72
2017-10-29T11:29:47.193Z,81.44
2017-10-29T11:31:40.051Z,81.73
2017-10-29T11:32:40.035Z,81.77
2017-10-29T11:34:32.906Z,80.43
2017-10-29T11:35:32.863Z,80.33
2017-10-29T11:37:25.719Z,79.57
2017-10-29T11:38:25.697Z,80.62
2017-10-29T11:40:18.583Z,80.72
2017-10-29T11:41:18.538Z,80.62
2017-10-29T11:43:11.881Z,81.29
2017-10-29T11:44:11.865Z,82.82
2017-10-29T11:46:05.265Z,82.95
2017-10-29T11:47:05.196Z,83.91
2017-10-29T11:48:58.042Z,81.67
2017-10-29T11:49:58.022Z,80.62
2017-10-29T11:51:51.437Z,79.00
2017-10-29T11:52:51.376Z,79.48
2017-10-29T11:54:44.245Z,79.00
2017-10-29T11:55:44.222Z,77.76
2017-10-29T11:57:37.100Z,78.43
2017-10-29T11:58:37.059Z,77.86
2017-10-29T12:00:29.910Z,76.81
2017-10-29T12:01:29.887Z,77.47
2017-10-29T12:03:23.256Z,77.09
2017-10-29T12:04:23.214Z,76.81
2017-10-29T12:06:16.560Z,74.90
2017-10-29T12:07:16.541Z,74.99
2017-10-29T12:09:09.413Z,75.85
2017-10-29T12:10:09.370Z,75.09
2017-10-29T12:12:02.221Z,74.42
2017-10-29T12:13:02.216Z,75.03
2017-10-29T12:14:55.081Z,71.12
2017-10-29T12:15:55.035Z,70.07
2017-10-29T12:17:47.893Z,67.68
2017-10-29T12:18:47.870Z,68.44
2017-10-29T12:20:41.246Z,68.35
2017-10-29T12:21:41.199Z,69.40
2017-10-29T12:23:34.548Z,67.87
2017-10-29T12:24:34.553Z,67.21
2017-10-29T12:26:27.906Z,65.96
2017-10-29T12:27:27.861Z,66.15
2017-10-29T12:29:20.722Z,65.77
2017-10-29T12:30:20.701Z,65.01
2017-10-29T12:32:14.087Z,63.89
2017-10-29T12:33:14.035Z,63.32
2017-10-29T12:35:06.894Z,61.54
2017-10-29T12:36:06.873Z,61.06
2017-10-29T12:38:00.255Z,58.61
2017-10-29T12:39:00.209Z,58.41
2017-10-29T12:40:53.566Z,57.17
2017-10-29T12:41:53.545Z,57.07
2017-10-29T12:43:46.933Z,55.29
2017-10-29T12:44:46.893Z,55.60
2017-10-29T12:46:39.753Z,54.55
2017-10-29T12:47:39.745Z,55.44
2017-10-29T12:49:33.131Z,53.33
2017-10-29T12:50:33.087Z,52.78
2017-10-29T12:52:25.952Z,53.93
2017-10-29T12:53:25.932Z,51.85
2017-10-29T12:55:18.824Z,51.92
2017-10-29T12:56:18.786Z,52.40
2017-10-29T12:58:11.657Z,52.50
2017-10-29T12:59:11.638Z,51.46
2017-10-29T13:01:04.535Z,51.08
2017-10-29T13:02:04.492Z,50.22
2017-10-29T13:03:57.361Z,49.45
2017-10-29T13:04:57.344Z,49.52
2017-10-29T13:06:50.233Z,49.74
2017-10-29T13:07:50.197Z,48.71
2017-10-29T13:09:43.070Z,46.67
2017-10-29T13:10:43.054Z,48.23
2017-10-29T13:12:35.947Z,48.43
2017-10-29T13:13:35.911Z,48.02
2017-10-29T13:15:28.797Z,47.56
2017-10-29T13:16:28.784Z,47.30
2017-10-29T13:18:22.167Z,44.40
2017-10-29T13:19:22.132Z,44.16
2017-10-29T13:21:15.504Z,44.26
2017-10-29T13:22:15.490Z,44.83
2017-10-29T13:24:08.381Z,43.18
2017-10-29T13:25:08.344Z,42.70
2017-10-29T13:27:01.724Z,43.71
2017-10-29T13:28:01.729Z,44.29
2017-10-29T13:29:55.094Z,42.68
2017-10-29T13:30:55.066Z,44.81
2017-10-29T13:32:48.425Z,41.55
2017-10-29T13:33:48.418Z,43.39
2017-10-29T13:35:41.302Z,40.98
2017-10-29T13:36:41.270Z,41.55
2017-10-29T13:38:34.133Z,41.57
2017-10-29T13:39:34.120Z,45.37
2017-10-29T13:41:27.029Z,37.08
2017-10-29T13:42:26.995Z,35.45
2017-10-29T13:44:20.468Z,35.53
2017-10-29T13:45:20.402Z,36.11
2017-10-29T13:47:13.897Z,36.40
2017-10-29T13:48:13.906Z,33.24
2017-10-29T13:50:07.513Z,32.87
2017-10-29T13:51:07.237Z,32.57
2017-10-29T13:53:00.751Z,33.72
2017-10-29T13:54:00.559Z,34.19
2017-10-29T13:55:53.689Z,33.90
2017-10-29T13:56:53.611Z,33.53
2017-10-29T13:58:47.014Z,34.17
2017-10-29T13:59:46.972Z,34.09
2017-10-29T14:01:40.359Z,33.36
2017-10-29T14:02:40.337Z,31.83
2017-10-29T14:04:33.740Z,31.26
2017-10-29T14:05:33.713Z,30.66
2017-10-29T14:07:28.011Z,32.52
2017-10-29T14:08:27.983Z,30.60
2017-10-29T14:10:21.426Z,32.46
2017-10-29T14:11:21.463Z,29.76
2017-10-29T14:13:15.596Z,30.34
2017-10-29T14:14:15.650Z,29.63
2017-10-29T14:16:09.099Z,30.80
2017-10-29T14:17:17.626Z,30.02
2017-10-29T14:19:03.434Z,30.60
2017-10-29T14:20:03.425Z,30.10
2017-10-29T14:21:57.777Z,30.39
2017-10-29T14:22:57.739Z,30.97
2017-10-29T14:24:51.200Z,30.68
2017-10-29T14:25:51.145Z,29.99
2017-10-29T14:27:45.636Z,31.99
2017-10-29T14:28:45.508Z,31.70
2017-10-29T14:30:38.928Z,32.09
2017-10-29T14:31:39.396Z,31.43
2017-10-29T14:33:32.242Z,29.37
2017-10-29T14:34:32.186Z,30.71
2017-10-29T14:36:26.776Z,30.95
2017-10-29T14:37:26.625Z,31.02
2017-10-29T14:39:20.604Z,32.93
2017-10-29T14:40:19.908Z,31.88
2017-10-29T14:42:13.334Z,32.95
2017-10-29T14:43:13.402Z,31.23
2017-10-29T14:45:06.946Z,31.03
2017-10-29T14:46:06.798Z,30.17
2017-10-29T14:48:00.303Z,29.99
2017-10-29T14:49:00.213Z,29.99
2017-10-29T14:50:54.755Z,29.04
2017-10-29T14:51:54.679Z,29.83
2017-10-29T14:53:47.923Z,29.73
2017-10-29T14:54:47.918Z,29.41
2017-10-29T14:56:42.490Z,29.93
2017-10-29T14:57:42.301Z,30.11
2017-10-29T14:59:36.641Z,29.80
2017-10-29T15:00:36.672Z,30.49
2017-10-29T15:02:30.039Z,30.08
2017-10-29T15:03:30.031Z,30.76
2017-10-29T15:05:23.413Z,30.84
2017-10-29T15:06:23.372Z,31.62
2017-10-29T15:08:17.834Z,30.77
2017-10-29T15:09:17.774Z,29.43
2017-10-29T15:11:10.588Z,31.35
2017-10-29T15:12:10.575Z,31.24
2017-10-29T15:14:03.977Z,32.47
2017-10-29T15:15:03.945Z,32.95
2017-10-29T15:16:57.323Z,33.31
2017-10-29T15:17:57.305Z,34.73
2017-10-29T15:19:50.683Z,33.50
2017-10-29T15:20:50.676Z,34.38
2017-10-29T15:22:44.039Z,34.82
2017-10-29T15:23:44.063Z,35.48
2017-10-29T15:25:37.394Z,36.61
2017-10-29T15:26:37.374Z,35.92
2017-10-29T15:28:30.729Z,37.63
2017-10-29T15:29:30.715Z,38.01
2017-10-29T15:31:24.170Z,37.61
2017-10-29T15:32:24.048Z,37.51
2017-10-29T15:34:17.412Z,39.52
2017-10-29T15:35:17.396Z,39.89
2017-10-29T15:37:10.783Z,40.84
2017-10-29T15:38:11.378Z,41.13
2017-10-29T15:40:05.115Z,41.11
2017-10-29T15:41:05.154Z,42.16
2017-10-29T15:42:59.518Z,41.68
2017-10-29T15:43:59.465Z,41.58
2017-10-29T15:45:52.841Z,41.75
2017-10-29T15:46:52.837Z,42.24
2017-10-29T15:48:46.239Z,43.17
2017-10-29T15:49:46.178Z,43.93
2017-10-29T15:51:39.551Z,42.11
2017-10-29T15:52:39.541Z,43.17
2017-10-29T15:54:33.913Z,44.96
2017-10-29T15:55:33.868Z,44.67
2017-10-29T15:57:27.233Z,44.96
2017-10-29T15:58:27.232Z,45.82
2017-10-29T16:00:20.625Z,46.08
2017-10-29T16:01:20.582Z,45.61
2017-10-29T16:03:13.926Z,47.03
2017-10-29T16:04:13.908Z,47.13
2017-10-29T16:06:07.283Z,46.18
2017-10-29T16:07:07.252Z,48.37
2017-10-29T16:09:00.616Z,48.73
2017-10-29T16:10:00.595Z,49.30
2017-10-29T16:11:53.982Z,49.68
2017-10-29T16:12:53.917Z,50.26
2017-10-29T16:14:47.303Z,50.16
2017-10-29T16:15:47.269Z,49.68
2017-10-29T16:17:40.701Z,50.35
2017-10-29T16:18:40.612Z,50.73
2017-10-29T16:20:34.983Z,50.61
2017-10-29T16:21:34.941Z,51.37
2017-10-29T16:23:28.347Z,50.80
2017-10-29T16:24:28.300Z,52.14
2017-10-29T16:26:21.670Z,51.56
2017-10-29T16:27:29.333Z,52.14
2017-10-29T16:29:16.063Z,52.14
2017-10-29T16:30:16.007Z,52.90
2017-10-29T16:32:09.386Z,53.28
2017-10-29T16:33:09.367Z,52.80
2017-10-29T16:35:03.769Z,53.00
2017-10-29T16:36:03.691Z,52.71
2017-10-29T16:37:57.057Z,53.85
2017-10-29T16:38:57.034Z,54.61
2017-10-29T16:40:51.443Z,55.26
2017-10-29T16:41:51.378Z,54.97
2017-10-29T16:43:44.820Z,55.92
2017-10-29T16:44:44.714Z,55.83
2017-10-29T16:46:39.238Z,56.68
2017-10-29T16:47:39.071Z,55.92
2017-10-29T16:49:32.422Z,56.87
2017-10-29T16:50:32.390Z,56.78
2017-10-29T16:52:26.806Z,56.87
2017-10-29T16:53:26.785Z,57.82
2017-10-29T16:55:20.067Z,57.60
2017-10-29T16:56:20.112Z,58.08
2017-10-29T16:58:13.441Z,57.89
2017-10-29T16:59:13.407Z,57.51
2017-10-29T17:01:06.770Z,58.28
2017-10-29T17:02:06.735Z,59.13
2017-10-29T17:04:00.105Z,59.51
2017-10-29T17:05:00.251Z,58.37
2017-10-29T17:06:54.671Z,58.94
2017-10-29T17:07:54.745Z,58.18
2017-10-29T17:09:48.011Z,58.65
2017-10-29T17:10:47.949Z,58.65
2017-10-29T17:12:41.378Z,59.03
2017-10-29T17:13:41.293Z,59.03
2017-10-29T17:15:35.664Z,59.80
2017-10-29T17:16:35.642Z,60.08
2017-10-29T17:18:29.976Z,60.46
2017-10-29T17:19:29.966Z,61.04
2017-10-29T17:21:23.346Z,60.94
2017-10-29T17:22:23.309Z,61.42
2017-10-29T17:24:16.662Z,61.58
2017-10-29T17:25:16.621Z,62.05
2017-10-29T17:27:10.029Z,62.24
2017-10-29T17:28:09.987Z,62.15
2017-10-29T17:30:03.388Z,62.34
2017-10-29T17:31:03.360Z,62.43
2017-10-29T17:32:56.772Z,62.43
2017-10-29T17:33:56.679Z,63.01
2017-10-29T17:35:51.034Z,62.72
2017-10-29T17:36:51.001Z,63.20
2017-10-29T17:38:44.397Z,63.57
2017-10-29T17:39:44.530Z,63.39
2017-10-29T17:41:38.699Z,63.48
2017-10-29T17:42:38.697Z,63.76
2017-10-29T17:44:32.068Z,63.48
2017-10-29T17:45:32.023Z,64.53
2017-10-29T17:47:25.419Z,63.67
2017-10-29T17:48:25.362Z,65.10
2017-10-29T17:50:18.738Z,64.43
2017-10-29T17:51:18.683Z,65.00
2017-10-29T17:53:13.207Z,65.10
2017-10-29T17:54:13.044Z,65.38
2017-10-29T17:56:06.400Z,65.45
2017-10-29T17:57:06.335Z,65.35
2017-10-29T17:59:00.698Z,66.11
2017-10-29T18:00:00.687Z,65.45
2017-10-29T18:01:54.066Z,65.35
2017-10-29T18:02:54.022Z,65.25
2017-10-29T18:04:47.370Z,65.35
2017-10-29T18:05:47.356Z,65.54
2017-10-29T18:07:40.724Z,65.54
2017-10-29T18:08:40.713Z,65.16
2017-10-29T18:10:34.121Z,65.45
2017-10-29T18:11:34.063Z,66.20
2017-10-29T18:13:27.428Z,66.30
2017-10-29T18:14:27.405Z,66.30
2017-10-29T18:16:20.753Z,66.30
2017-10-29T18:17:20.754Z,67.35
2017-10-29T18:19:15.124Z,66.39
2017-10-29T18:20:15.093Z,67.44
2017-10-29T18:22:08.440Z,67.44
2017-10-29T18:23:08.382Z,67.63
2017-10-29T18:25:01.793Z,67.35
2017-10-29T18:26:01.750Z,68.01
2017-10-29T18:27:55.088Z,67.73
2017-10-29T18:28:55.089Z,66.94
2017-10-29T18:30:50.444Z,67.03
2017-10-29T18:31:50.418Z,67.41
2017-10-29T18:33:43.813Z,67.50
2017-10-29T18:34:43.768Z,67.50